Time;durP1;ratioP1;P1;durP2;ratioP2;P2;SDS_P1;SDS_P2;PMS_P1;PMS_P2;Temp;Humidity;BMP_temperature;BMP_pressure;BME280_temperature;BME280_humidity;BME280_pressure;Samples;Min_cycle;Max_cycle;Signal;HPM_P1;HPM_P2
2021/04/28 00:02:01;;;;;;;6.93;4.67;;;15.50;40.90;;;;;;6276364;22;20150;-90
2021/04/28 00:04:27;;;;;;;5.70;4.23;;;15.40;41.00;;;;;;6276163;22;20241;-91
2021/04/28 00:06:52;;;;;;;8.50;5.00;;;15.50;41.10;;;;;;6276390;22;20170;-90
2021/04/28 00:09:18;;;;;;;5.97;4.90;;;15.50;41.00;;;;;;6276434;22;20474;-90
2021/04/28 00:11:45;;;;;;;7.73;4.60;;;15.40;41.70;;;;;;6275970;22;20696;-90
2021/04/28 00:14:11;;;;;;;7.53;4.17;;;15.30;41.40;;;;;;6276388;22;20150;-90
2021/04/28 00:16:37;;;;;;;6.13;4.27;;;15.10;41.90;;;;;;6276637;22;20244;-90
2021/04/28 00:19:04;;;;;;;4.80;4.07;;;15.10;42.30;;;;;;6276461;22;20229;-90
2021/04/28 00:21:30;;;;;;;7.00;4.67;;;14.90;42.50;;;;;;6276048;22;20146;-90
2021/04/28 00:23:56;;;;;;;10.47;4.27;;;14.90;42.60;;;;;;6276283;22;20511;-90
2021/04/28 00:26:22;;;;;;;8.70;5.17;;;14.80;42.80;;;;;;6276532;22;20232;-90
2021/04/28 00:28:48;;;;;;;7.20;4.47;;;14.80;43.00;;;;;;6276248;22;20166;-90
2021/04/28 00:31:14;;;;;;;8.27;4.10;;;14.60;42.90;;;;;;6276667;22;20645;-90
2021/04/28 00:33:40;;;;;;;6.20;3.87;;;14.60;43.50;;;;;;6277470;22;20147;-90
2021/04/28 00:36:07;;;;;;;9.83;4.30;;;14.60;43.80;;;;;;6282587;22;20180;-90
2021/04/28 00:38:33;;;;;;;6.27;4.20;;;14.70;44.20;;;;;;6291736;22;20140;-90
2021/04/28 00:41:00;;;;;;;8.77;4.00;;;14.70;43.80;;;;;;6284851;22;20146;-90
2021/04/28 00:43:27;;;;;;;9.83;4.13;;;14.80;43.60;;;;;;6276538;22;20178;-90
2021/04/28 00:45:52;;;;;;;5.37;3.90;;;14.60;44.20;;;;;;6277498;22;20152;-90
2021/04/28 00:48:18;;;;;;;8.13;4.43;;;14.20;44.90;;;;;;6277450;22;20150;-91
2021/04/28 00:50:47;;;;;;;7.40;4.30;;;14.10;45.40;;;;;;6277327;22;20172;-90
2021/04/28 00:53:16;;;;;;;9.40;5.00;;;14.10;44.90;;;;;;6277974;22;20156;-90
2021/04/28 00:55:43;;;;;;;9.17;4.00;;;14.00;45.10;;;;;;6277292;22;20186;-90
2021/04/28 00:58:09;;;;;;;8.00;3.90;;;13.90;45.30;;;;;;6276863;22;20537;-90
2021/04/28 01:00:36;;;;;;;9.90;4.37;;;14.20;44.90;;;;;;6275678;22;20151;-90
2021/04/28 01:03:02;;;;;;;5.40;3.83;;;14.20;44.80;;;;;;6277406;22;20143;-90
2021/04/28 01:05:28;;;;;;;6.53;4.03;;;14.00;44.80;;;;;;6277976;22;20520;-90
2021/04/28 01:07:54;;;;;;;6.57;4.03;;;13.90;45.00;;;;;;6278258;22;20154;-90
2021/04/28 01:10:23;;;;;;;6.23;4.27;;;13.90;45.00;;;;;;6277455;22;20178;-89
2021/04/28 01:12:50;;;;;;;8.67;4.20;;;14.00;45.10;;;;;;6277672;22;20466;-90
2021/04/28 01:15:19;;;;;;;7.37;4.20;;;13.90;45.00;;;;;;6278475;22;20182;-89
2021/04/28 01:17:44;;;;;;;5.70;3.50;;;13.90;45.00;;;;;;6278140;22;20201;-90
2021/04/28 01:20:16;;;;;;;6.60;4.13;;;13.80;45.00;;;;;;6279744;22;20140;-90
2021/04/28 01:22:46;;;;;;;5.90;3.63;;;13.80;45.50;;;;;;6277785;22;20576;-90
2021/04/28 01:25:15;;;;;;;5.20;3.83;;;13.80;45.90;;;;;;6277888;22;20241;-90
2021/04/28 01:27:46;;;;;;;6.17;4.23;;;13.70;46.10;;;;;;6278011;22;20154;-90
2021/04/28 01:30:14;;;;;;;7.67;4.07;;;13.90;45.90;;;;;;6277733;22;20159;-89
2021/04/28 01:32:48;;;;;;;8.10;4.13;;;13.80;45.20;;;;;;6277611;22;20162;-91
2021/04/28 01:35:18;;;;;;;4.93;3.63;;;14.00;45.70;;;;;;6278224;22;20176;-93
2021/04/28 01:37:45;;;;;;;7.70;3.87;;;13.70;46.10;;;;;;6277441;22;20156;-89
2021/04/28 01:40:13;;;;;;;4.93;3.80;;;13.60;45.70;;;;;;6277853;22;20153;-90
2021/04/28 01:42:40;;;;;;;5.30;4.00;;;13.80;45.90;;;;;;6277501;22;20147;-90
2021/04/28 01:45:07;;;;;;;5.80;3.60;;;13.90;45.00;;;;;;6277586;22;20142;-90
2021/04/28 01:47:34;;;;;;;5.30;3.80;;;13.80;45.10;;;;;;6277695;22;20153;-89
2021/04/28 01:50:00;;;;;;;5.57;4.23;;;13.80;45.50;;;;;;6277639;22;20151;-90
2021/04/28 01:52:25;;;;;;;7.53;4.47;;;13.60;46.00;;;;;;6277505;22;20213;-90
2021/04/28 01:54:51;;;;;;;6.23;4.00;;;13.70;45.90;;;;;;6277492;22;20146;-90
2021/04/28 01:57:17;;;;;;;6.17;3.80;;;13.80;45.60;;;;;;6276895;22;20154;-90
2021/04/28 01:59:44;;;;;;;4.30;3.90;;;13.70;45.80;;;;;;6277515;22;20154;-90
2021/04/28 02:02:11;;;;;;;7.30;4.10;;;13.60;46.10;;;;;;6252341;22;20215;-90
2021/04/28 02:04:38;;;;;;;6.13;4.40;;;13.20;46.90;;;;;;6277469;22;20457;-90
2021/04/28 02:07:04;;;;;;;10.13;4.30;;;12.90;48.00;;;;;;6277643;22;20460;-90
2021/04/28 02:09:31;;;;;;;6.37;3.93;;;12.80;47.80;;;;;;6277953;22;20225;-90
2021/04/28 02:11:57;;;;;;;10.23;4.13;;;12.70;48.30;;;;;;6277437;22;20149;-90
2021/04/28 02:14:24;;;;;;;7.33;4.50;;;12.90;48.30;;;;;;6276759;22;20603;-90
2021/04/28 02:16:51;;;;;;;6.70;4.13;;;12.80;48.70;;;;;;6276833;22;20193;-90
2021/04/28 02:19:17;;;;;;;6.73;4.00;;;12.60;49.20;;;;;;6277237;22;20224;-90
2021/04/28 02:21:51;;;;;;;4.90;3.80;;;12.50;49.00;;;;;;6277108;22;20185;-90
2021/04/28 02:24:18;;;;;;;7.30;3.60;;;12.40;49.50;;;;;;6276841;22;20151;-90
2021/04/28 02:26:45;;;;;;;6.00;4.17;;;12.30;49.50;;;;;;6277023;22;20167;-90
2021/04/28 02:29:11;;;;;;;7.87;3.70;;;12.30;49.60;;;;;;6276859;22;20177;-91
2021/04/28 02:31:38;;;;;;;5.40;3.90;;;12.50;49.20;;;;;;6277827;22;20147;-90
2021/04/28 02:34:06;;;;;;;6.77;3.80;;;12.60;49.00;;;;;;6276975;22;20190;-90
2021/04/28 02:36:40;;;;;;;6.87;4.00;;;12.60;49.10;;;;;;6277076;22;20182;-90
2021/04/28 02:39:12;;;;;;;7.33;3.97;;;12.90;48.50;;;;;;6276973;22;20486;-90
2021/04/28 02:41:43;;;;;;;6.93;4.20;;;13.00;48.50;;;;;;6277484;22;20609;-91
2021/04/28 02:44:17;;;;;;;7.97;4.57;;;12.80;48.20;;;;;;6277020;22;20143;-92
2021/04/28 02:46:44;;;;;;;6.33;3.90;;;12.80;48.00;;;;;;6276795;22;20139;-90
2021/04/28 02:49:11;;;;;;;5.50;4.20;;;12.90;47.80;;;;;;6276791;22;20604;-90
2021/04/28 02:51:39;;;;;;;7.50;4.13;;;13.00;47.40;;;;;;6277424;22;20222;-90
2021/04/28 02:54:06;;;;;;;10.33;4.50;;;13.00;47.60;;;;;;6276592;22;20138;-90
2021/04/28 02:56:33;;;;;;;6.23;4.23;;;12.90;46.90;;;;;;6277064;22;20190;-89
2021/04/28 02:58:59;;;;;;;11.40;5.03;;;12.90;47.20;;;;;;6277533;22;20228;-89
2021/04/28 03:01:26;;;;;;;5.53;4.07;;;12.90;47.30;;;;;;6284391;22;20147;-90
2021/04/28 03:03:53;;;;;;;8.47;4.50;;;12.80;47.90;;;;;;6286246;22;20175;-89
2021/04/28 03:06:20;;;;;;;7.43;4.30;;;12.90;47.70;;;;;;6283723;22;20216;-90
2021/04/28 03:08:46;;;;;;;5.77;4.63;;;13.00;47.40;;;;;;6282087;22;20139;-89
2021/04/28 03:11:13;;;;;;;6.30;4.20;;;12.80;47.90;;;;;;6276813;22;20177;-89
2021/04/28 03:13:40;;;;;;;10.83;4.80;;;12.80;48.10;;;;;;6276527;22;20226;-90
2021/04/28 03:16:07;;;;;;;8.40;4.13;;;12.60;47.30;;;;;;6277859;22;20182;-92
2021/04/28 03:18:36;;;;;;;7.73;4.33;;;12.60;48.30;;;;;;6277715;22;20209;-92
2021/04/28 03:21:02;;;;;;;7.27;4.30;;;12.50;48.30;;;;;;6278212;22;20148;-92
2021/04/28 03:23:27;;;;;;;5.23;4.57;;;12.60;48.60;;;;;;6277921;22;20486;-92
2021/04/28 03:25:54;;;;;;;8.10;4.67;;;12.70;48.30;;;;;;6277709;22;20186;-92
2021/04/28 03:28:20;;;;;;;14.17;4.60;;;12.80;47.30;;;;;;6277564;22;20154;-89
2021/04/28 03:30:46;;;;;;;5.60;4.43;;;12.50;48.40;;;;;;6278635;22;20155;-90
2021/04/28 03:33:13;;;;;;;7.00;4.37;;;12.40;49.00;;;;;;6277699;22;20172;-90
2021/04/28 03:35:39;;;;;;;6.13;4.50;;;12.50;49.90;;;;;;6277673;22;20167;-90
2021/04/28 03:38:05;;;;;;;8.93;4.67;;;12.20;49.50;;;;;;6277680;22;20146;-91
2021/04/28 03:40:31;;;;;;;6.43;4.70;;;12.30;49.50;;;;;;6278264;22;20478;-91
2021/04/28 03:42:57;;;;;;;6.00;4.37;;;12.20;49.30;;;;;;6278085;22;20143;-92
2021/04/28 03:45:23;;;;;;;6.77;4.50;;;12.20;49.00;;;;;;6277587;22;20208;-89
2021/04/28 03:47:49;;;;;;;7.60;4.40;;;12.10;49.10;;;;;;6277080;22;20135;-89
2021/04/28 03:50:15;;;;;;;6.20;4.50;;;12.10;49.60;;;;;;6277190;22;20166;-91
2021/04/28 03:52:42;;;;;;;10.60;5.03;;;12.20;49.70;;;;;;6277220;22;20468;-91
2021/04/28 03:55:09;;;;;;;7.70;4.70;;;12.20;50.00;;;;;;6276202;22;20166;-91
2021/04/28 03:57:35;;;;;;;15.17;4.87;;;12.00;51.30;;;;;;6276763;22;20162;-92
2021/04/28 04:00:02;;;;;;;8.30;4.27;;;12.10;51.40;;;;;;6276307;22;20143;-92
2021/04/28 04:02:30;;;;;;;9.57;4.30;;;11.90;51.70;;;;;;6276343;22;20568;-91
2021/04/28 04:04:56;;;;;;;4.63;4.13;;;11.80;52.30;;;;;;6276005;22;20147;-91
2021/04/28 04:07:21;;;;;;;8.03;5.07;;;11.80;52.20;;;;;;6276441;22;20157;-91
2021/04/28 04:09:47;;;;;;;6.40;4.30;;;11.60;52.10;;;;;;6276611;22;20166;-89
2021/04/28 04:12:13;;;;;;;10.60;5.03;;;11.40;52.80;;;;;;6276931;22;20146;-91
2021/04/28 04:14:38;;;;;;;8.93;4.50;;;11.70;53.10;;;;;;6276490;22;20142;-91
2021/04/28 04:17:04;;;;;;;13.00;5.23;;;11.40;53.50;;;;;;6276297;22;20201;-91
2021/04/28 04:19:30;;;;;;;7.73;4.87;;;11.30;53.60;;;;;;6276677;22;20142;-92
2021/04/28 04:21:56;;;;;;;9.23;4.43;;;11.20;53.20;;;;;;6276790;22;20197;-89
2021/04/28 04:24:21;;;;;;;5.93;4.20;;;11.20;53.20;;;;;;6276097;22;20151;-90
2021/04/28 04:26:47;;;;;;;9.83;4.93;;;11.20;53.30;;;;;;6276778;22;20241;-92
2021/04/28 04:29:13;;;;;;;11.53;5.27;;;11.30;53.60;;;;;;6277064;22;20173;-89
2021/04/28 04:31:38;;;;;;;6.30;4.77;;;11.40;52.30;;;;;;6276543;22;20150;-89
2021/04/28 04:34:04;;;;;;;11.27;5.50;;;11.40;52.60;;;;;;6276323;22;20174;-89
2021/04/28 04:36:31;;;;;;;12.20;5.80;;;11.30;52.30;;;;;;6275804;22;20516;-89
2021/04/28 04:38:56;;;;;;;10.13;5.50;;;11.30;52.70;;;;;;6276488;22;20151;-89
2021/04/28 04:41:22;;;;;;;8.63;5.50;;;11.30;51.90;;;;;;6275992;22;20147;-89
2021/04/28 04:43:48;;;;;;;8.67;5.17;;;11.40;52.50;;;;;;6276550;22;20139;-89
2021/04/28 04:46:15;;;;;;;9.93;5.27;;;11.40;51.70;;;;;;6276934;22;20139;-89
2021/04/28 04:48:40;;;;;;;9.00;5.40;;;11.30;52.50;;;;;;6277497;22;20475;-89
2021/04/28 04:51:06;;;;;;;11.40;5.90;;;11.40;52.30;;;;;;6277476;22;20138;-89
2021/04/28 04:53:32;;;;;;;10.73;5.60;;;11.60;52.10;;;;;;6277447;22;20594;-90
2021/04/28 04:55:58;;;;;;;23.17;6.07;;;11.30;52.00;;;;;;6276968;22;20190;-87
2021/04/28 04:58:23;;;;;;;21.43;5.47;;;11.10;52.40;;;;;;6276076;22;20595;-89
2021/04/28 05:00:49;;;;;;;16.93;5.87;;;11.10;53.10;;;;;;6275010;22;20147;-90
2021/04/28 05:03:14;;;;;;;19.77;5.60;;;11.20;53.70;;;;;;6273602;22;20151;-89
2021/04/28 05:05:40;;;;;;;14.07;5.57;;;11.20;53.10;;;;;;6274565;22;20322;-89
2021/04/28 05:08:06;;;;;;;18.80;6.07;;;11.30;53.20;;;;;;6274601;22;20142;-89
2021/04/28 05:10:32;;;;;;;15.13;5.87;;;11.40;53.40;;;;;;6274239;22;20238;-89
2021/04/28 05:12:57;;;;;;;16.60;6.30;;;11.60;52.20;;;;;;6274778;22;20157;-89
2021/04/28 05:15:23;;;;;;;16.70;6.47;;;11.80;51.90;;;;;;6275354;22;20173;-89
2021/04/28 05:17:49;;;;;;;14.60;5.67;;;11.80;51.70;;;;;;6274432;22;20640;-92
2021/04/28 05:20:15;;;;;;;10.17;5.83;;;12.00;50.90;;;;;;6274451;22;20143;-89
2021/04/28 05:22:41;;;;;;;12.53;6.30;;;12.20;50.80;;;;;;6275167;22;20536;-91
2021/04/28 05:25:07;;;;;;;9.57;5.53;;;12.20;51.40;;;;;;6274360;22;20159;-89
2021/04/28 05:27:33;;;;;;;6.60;5.37;;;12.10;51.30;;;;;;6275046;22;20173;-90
2021/04/28 05:30:00;;;;;;;11.80;5.40;;;12.30;50.90;;;;;;6276774;22;20170;-89
2021/04/28 05:32:26;;;;;;;11.03;6.53;;;12.40;50.30;;;;;;6287321;22;20143;-89
2021/04/28 05:34:53;;;;;;;12.93;5.63;;;12.40;50.20;;;;;;6287060;22;20174;-89
2021/04/28 05:37:19;;;;;;;19.03;6.83;;;12.40;50.50;;;;;;6275611;22;20150;-92
2021/04/28 05:39:49;;;;;;;14.73;6.47;;;12.50;50.50;;;;;;6275373;22;20476;-92
2021/04/28 05:42:16;;;;;;;19.53;6.87;;;12.60;50.00;;;;;;6275553;22;20154;-91
2021/04/28 05:44:43;;;;;;;10.23;6.13;;;12.60;49.60;;;;;;6275511;22;20143;-91
2021/04/28 05:47:08;;;;;;;8.70;6.50;;;12.60;49.80;;;;;;6276234;22;20181;-91
2021/04/28 05:49:36;;;;;;;10.23;5.90;;;12.60;49.50;;;;;;6276980;22;20142;-92
2021/04/28 05:52:02;;;;;;;9.00;5.57;;;12.50;50.10;;;;;;6278085;22;20143;-90
2021/04/28 05:54:28;;;;;;;12.30;6.43;;;12.60;49.40;;;;;;6278247;22;20158;-91
2021/04/28 05:56:56;;;;;;;16.80;6.43;;;12.50;49.60;;;;;;6279076;22;20198;-91
2021/04/28 05:59:22;;;;;;;13.60;6.27;;;12.30;50.50;;;;;;6278254;22;20150;-91
2021/04/28 06:01:47;;;;;;;10.30;6.30;;;12.20;50.60;;;;;;6277490;22;20147;-90
2021/04/28 06:04:13;;;;;;;11.60;6.30;;;12.40;49.70;;;;;;6278534;22;20174;-91
2021/04/28 06:06:38;;;;;;;14.03;5.87;;;12.40;49.50;;;;;;6277023;22;20149;-90
2021/04/28 06:09:04;;;;;;;14.70;6.60;;;12.50;49.40;;;;;;6277212;22;20135;-90
2021/04/28 06:11:30;;;;;;;12.77;7.00;;;12.40;49.70;;;;;;6277254;22;20179;-89
2021/04/28 06:13:56;;;;;;;10.00;6.50;;;12.40;49.60;;;;;;6277132;22;20143;-91
2021/04/28 06:16:24;;;;;;;9.37;6.57;;;12.60;49.80;;;;;;6277475;22;20181;-90
2021/04/28 06:18:50;;;;;;;12.10;7.10;;;12.50;50.10;;;;;;6278991;22;20154;-91
2021/04/28 06:21:16;;;;;;;16.00;7.07;;;12.40;50.60;;;;;;6279232;22;20142;-91
2021/04/28 06:23:41;;;;;;;14.43;6.80;;;12.40;50.50;;;;;;6279484;22;20139;-91
2021/04/28 06:26:07;;;;;;;8.37;7.23;;;12.60;50.40;;;;;;6279006;22;20158;-92
2021/04/28 06:28:33;;;;;;;12.43;6.87;;;12.70;49.60;;;;;;6278272;22;20208;-91
2021/04/28 06:47:42;;;;;;;13.20;7.00;;;13.00;49.60;;;;;;6257278;22;20210;-93
2021/04/28 06:50:24;;;;;;;11.93;7.50;;;13.00;49.90;;;;;;6281409;22;20591;-93
2021/04/28 06:52:53;;;;;;;12.97;7.33;;;13.20;49.80;;;;;;6279507;22;20150;-93
2021/04/28 06:55:19;;;;;;;10.90;7.40;;;13.20;50.00;;;;;;6277556;22;20206;-92
2021/04/28 06:58:05;;;;;;;15.90;8.00;;;13.20;49.40;;;;;;6279403;22;20153;-92
2021/04/28 07:00:51;;;;;;;9.90;7.43;;;13.30;49.60;;;;;;6281330;22;20509;-93
2021/04/28 07:03:25;;;;;;;11.63;7.40;;;13.30;49.90;;;;;;6280903;22;20153;-93
2021/04/28 07:06:29;;;;;;;;;;;;;;;;;;;;;
2021/04/28 07:09:09;;;;;;;17.37;8.20;;;13.50;49.20;;;;;;6282477;22;20174;-93
2021/04/28 07:11:53;;;;;;;11.57;7.60;;;13.60;49.40;;;;;;6285918;22;20180;-93
2021/04/28 07:14:24;;;;;;;11.93;7.97;;;13.50;50.10;;;;;;6280945;22;20147;-93
2021/04/28 07:16:58;;;;;;;16.43;8.53;;;13.60;49.40;;;;;;6285215;22;20190;-91
2021/04/28 07:19:39;;;;;;;19.87;8.80;;;13.60;49.00;;;;;;6288935;22;20566;-92
2021/04/28 07:22:17;;;;;;;11.67;7.63;;;13.70;49.60;;;;;;6285088;22;20151;-91
2021/04/28 07:24:58;;;;;;;;;;;;;;;;;;;;;
2021/04/28 07:27:32;;;;;;;15.20;7.77;;;14.00;49.00;;;;;;6292333;22;20155;-94
2021/04/28 07:30:12;;;;;;;14.00;8.13;;;14.10;48.40;;;;;;6284090;22;20154;-91
2021/04/28 07:32:58;;;;;;;;;;;;;;;;;;;;;
2021/04/28 07:35:51;;;;;;;12.50;8.20;;;14.30;48.20;;;;;;6286799;22;20197;-92
2021/04/28 07:38:25;;;;;;;14.00;8.30;;;14.40;48.30;;;;;;6286916;22;20165;-93
2021/04/28 07:41:20;;;;;;;14.33;8.43;;;14.30;48.00;;;;;;6287188;22;20142;-94
2021/04/28 07:44:04;;;;;;;11.70;8.03;;;14.60;48.00;;;;;;6294421;22;20151;-94
2021/04/28 07:50:44;;;;;;;14.80;9.03;;;15.00;48.30;;;;;;6193627;23;20264;-94
2021/04/28 07:53:46;;;;;;;13.87;8.67;;;15.20;47.10;;;;;;6153856;22;20171;-92
2021/04/28 08:11:31;;;;;;;;;;;;;;;;;;;;;
2021/04/28 08:15:02;;;;;;;;;;;;;;;;;;;;;
2021/04/28 08:37:47;;;;;;;14.33;9.33;;;16.90;46.60;;;;;;6226893;22;20197;-93
2021/04/28 08:48:04;;;;;;;;;;;;;;;;;;;;;
2021/04/28 08:54:58;;;;;;;18.87;10.13;;;17.40;45.10;;;;;;6180192;23;20489;-93
2021/04/28 08:58:28;;;;;;;20.93;10.07;;;17.50;44.90;;;;;;6122368;23;20194;-91
2021/04/28 09:01:49;;;;;;;;;;;;;;;;;;;;;
2021/04/28 09:14:54;;;;;;;;;;;;;;;;;;;;;
2021/04/28 09:18:05;;;;;;;21.40;10.17;;;17.70;44.70;;;;;;6155364;23;20701;-92
2021/04/28 09:21:02;;;;;;;20.10;10.57;;;17.60;45.10;;;;;;6159627;23;20154;-92
2021/04/28 09:26:53;;;;;;;19.70;10.40;;;17.60;45.40;;;;;;6177321;23;20158;-91
2021/04/28 09:30:09;;;;;;;17.87;10.30;;;17.70;45.40;;;;;;6164420;23;20149;-93
2021/04/28 09:36:32;;;;;;;17.57;11.03;;;17.60;45.50;;;;;;6187548;23;20189;-91
2021/04/28 09:39:05;;;;;;;15.27;11.67;;;17.60;45.00;;;;;;6221208;23;20142;-93
2021/04/28 09:42:08;;;;;;;;;;;;;;;;;;;;;
2021/04/28 09:44:56;;;;;;;;;;;;;;;;;;;;;
2021/04/28 09:47:31;;;;;;;22.07;11.37;;;17.50;45.40;;;;;;6220903;23;20189;-93
2021/04/28 09:50:04;;;;;;;16.47;10.67;;;17.70;43.20;;;;;;6221738;23;20240;-93
2021/04/28 09:52:48;;;;;;;17.40;11.33;;;17.60;43.10;;;;;;6220321;23;20628;-93
2021/04/28 09:55:42;;;;;;;16.20;10.90;;;17.40;45.20;;;;;;6220650;23;20187;-93
2021/04/28 09:58:55;;;;;;;;;;;;;;;;;;;;;
2021/04/28 10:04:52;;;;;;;18.57;11.43;;;17.30;44.30;;;;;;6153334;23;20195;-92
2021/04/28 10:07:26;;;;;;;18.27;10.60;;;17.40;45.30;;;;;;6161009;23;20209;-93
2021/04/28 10:10:07;;;;;;;21.53;10.80;;;17.40;44.50;;;;;;6204849;23;20174;-92
2021/04/28 10:12:44;;;;;;;15.67;10.77;;;17.40;44.60;;;;;;6222672;23;20160;-92
2021/04/28 10:15:12;;;;;;;22.87;10.90;;;17.60;42.90;;;;;;6222735;23;20157;-93
2021/04/28 10:17:52;;;;;;;;;;;;;;;;;;;;;
2021/04/28 10:21:19;;;;;;;;;;;;;;;;;;;;;
2021/04/28 10:24:11;;;;;;;14.67;11.40;;;18.00;43.40;;;;;;6156408;23;20178;-93
2021/04/28 10:26:56;;;;;;;17.00;11.20;;;18.00;43.80;;;;;;6126782;23;20155;-93
2021/04/28 10:32:41;;;;;;;18.73;10.97;;;18.20;43.50;;;;;;6200292;23;20197;-93
2021/04/28 10:35:22;;;;;;;14.67;11.50;;;18.20;43.90;;;;;;6197338;23;20586;-93
2021/04/28 10:38:05;;;;;;;17.10;11.70;;;18.30;43.90;;;;;;6220804;23;20153;-92
2021/04/28 10:40:43;;;;;;;21.07;12.70;;;18.50;43.50;;;;;;6220431;23;20480;-93
2021/04/28 10:43:38;;;;;;;17.87;12.47;;;18.60;43.20;;;;;;6220287;23;20241;-94
2021/04/28 10:46:20;;;;;;;15.70;12.60;;;18.60;43.90;;;;;;6220584;23;20154;-91
2021/04/28 10:49:02;;;;;;;;;;;;;;;;;;;;;
2021/04/28 10:51:45;;;;;;;19.83;13.03;;;18.70;43.50;;;;;;6232674;23;20139;-91
2021/04/28 10:54:43;;;;;;;18.90;11.90;;;18.80;43.90;;;;;;6233881;23;20159;-93
2021/04/28 10:57:19;;;;;;;16.83;12.97;;;18.90;43.80;;;;;;6233158;23;20174;-92
2021/04/28 10:59:46;;;;;;;19.20;12.57;;;19.00;43.70;;;;;;6228520;23;20140;-91
2021/04/28 11:02:40;;;;;;;20.73;14.03;;;19.10;43.90;;;;;;6226941;23;20162;-92
2021/04/28 11:05:43;;;;;;;19.53;13.20;;;19.30;42.60;;;;;;6217699;23;20247;-92
2021/04/28 11:08:45;;;;;;;22.03;13.53;;;19.70;42.50;;;;;;6217775;23;20206;-92
2021/04/28 11:12:03;;;;;;;24.77;13.63;;;20.30;41.70;;;;;;6215770;23;20156;-93
2021/04/28 11:46:22;;;;;;;;;;;;;;;;;;;;;
2021/04/28 11:49:04;;;;;;;15.80;13.55;;;31.00;31.30;;;;;;6043912;23;20192;-92
2021/04/28 11:52:07;;;;;;;21.40;14.85;;;31.10;31.00;;;;;;6048618;23;20152;-93
2021/04/28 11:54:58;;;;;;;16.33;13.68;;;31.60;31.00;;;;;;6055898;23;20154;-92
2021/04/28 13:11:29;;;;;;;24.40;16.53;;;28.70;31.30;;;;;;6124513;23;20230;-92
2021/04/28 13:17:12;;;;;;;;;;;;;;;;;;;;;
2021/04/28 13:19:53;;;;;;;24.13;16.97;;;27.10;32.10;;;;;;6182251;23;20239;-92
2021/04/28 13:22:56;;;;;;;21.00;15.67;;;26.70;32.40;;;;;;6158278;23;20647;-92
2021/04/28 13:25:50;;;;;;;22.47;16.80;;;26.70;32.50;;;;;;6199731;23;20221;-93
2021/04/28 13:28:45;;;;;;;22.10;15.50;;;26.30;32.90;;;;;;6219522;23;20147;-92
2021/04/28 13:31:26;;;;;;;21.33;16.23;;;26.20;32.90;;;;;;6247866;23;20169;-92
2021/04/28 13:34:40;;;;;;;;;;;;;;;;;;;;;
2021/04/28 13:41:09;;;;;;;24.07;16.17;;;28.20;31.40;;;;;;6250152;23;20205;-92
2021/04/28 13:44:33;;;;;;;;;;;;;;;;;;;;;
2021/04/28 13:51:41;;;;;;;;;;;;;;;;;;;;;
2021/04/28 14:56:52;;;;;;;;;;;;;;;;;;;;;
2021/04/28 14:59:57;;;;;;;21.67;16.48;;;32.30;28.80;;;;;;6264562;22;20237;-93
2021/04/28 15:03:22;;;;;;;18.55;15.70;;;32.60;28.70;;;;;;6251273;22;20150;-94
2021/04/28 15:06:30;;;;;;;15.02;13.43;;;32.80;28.80;;;;;;6065802;23;20233;-93
2021/04/28 15:09:01;;;;;;;19.17;15.80;;;32.80;28.80;;;;;;6112467;23;20151;-92
2021/04/28 15:11:39;;;;;;;;;;;;;;;;;;;;;
2021/04/28 15:18:49;;;;;;;;;;;;;;;;;;;;;
2021/04/28 18:55:30;;;;;;;23.20;17.43;;;21.30;41.90;;;;;;6187516;23;20587;-92
2021/04/28 18:58:22;;;;;;;;;;;;;;;;;;;;;
2021/04/28 19:01:02;;;;;;;25.43;17.27;;;21.10;42.40;;;;;;6283725;22;20529;-93
2021/04/28 19:03:44;;;;;;;27.07;17.23;;;21.10;42.40;;;;;;6250932;22;20156;-92
2021/04/28 19:10:11;;;;;;;;;;;;;;;;;;;;;
2021/04/28 19:12:57;;;;;;;28.53;16.37;;;20.80;43.50;;;;;;6278623;22;20227;-92
2021/04/28 19:15:54;;;;;;;21.80;16.23;;;20.80;43.50;;;;;;6250052;22;20163;-92
2021/04/28 19:18:33;;;;;;;25.53;16.67;;;20.50;44.00;;;;;;6251973;22;20176;-92
2021/04/28 19:21:15;;;;;;;27.53;16.83;;;20.50;43.90;;;;;;6250781;22;20154;-93
2021/04/28 19:24:40;;;;;;;26.77;15.83;;;20.40;44.10;;;;;;6251404;22;20174;-92
2021/04/28 19:27:23;;;;;;;20.30;14.57;;;20.40;43.50;;;;;;6272377;22;20151;-92
2021/04/28 19:30:23;;;;;;;;;;;;;;;;;;;;;
2021/04/28 19:33:23;;;;;;;;;;;;;;;;;;;;;
2021/04/28 19:36:16;;;;;;;19.23;13.93;;;20.30;43.60;;;;;;6217715;23;20597;-92
2021/04/28 19:39:00;;;;;;;21.63;14.87;;;20.30;43.60;;;;;;6231320;23;20592;-93
2021/04/28 19:44:17;;;;;;;22.23;14.67;;;20.00;43.80;;;;;;6136084;23;20164;-92
2021/04/28 19:46:43;;;;;;;22.17;15.27;;;19.90;44.00;;;;;;6131542;23;20157;-91
2021/04/28 19:49:09;;;;;;;23.53;15.47;;;19.90;44.10;;;;;;6130071;23;20157;-91
2021/04/28 19:51:35;;;;;;;24.47;14.73;;;19.80;44.30;;;;;;6129924;23;20370;-90
2021/04/28 19:54:01;;;;;;;19.40;14.13;;;19.80;44.30;;;;;;6140449;23;20164;-92
2021/04/28 19:56:27;;;;;;;19.23;14.63;;;19.60;44.40;;;;;;6159962;23;20211;-92
2021/04/28 19:58:52;;;;;;;24.73;14.27;;;19.50;45.40;;;;;;6159701;23;20182;-91
2021/04/28 20:01:19;;;;;;;18.93;13.83;;;19.50;45.00;;;;;;6159810;23;20164;-92
2021/04/28 20:03:45;;;;;;;20.60;14.23;;;19.40;45.30;;;;;;6160081;23;20145;-91
2021/04/28 20:06:10;;;;;;;21.50;15.10;;;19.30;45.60;;;;;;6159432;23;20171;-91
2021/04/28 20:08:37;;;;;;;21.90;14.00;;;19.20;45.50;;;;;;6159189;23;20168;-92
2021/04/28 20:11:04;;;;;;;19.60;14.47;;;19.10;45.80;;;;;;6159272;23;20149;-92
2021/04/28 20:13:29;;;;;;;19.60;14.00;;;19.10;45.80;;;;;;6245647;22;20277;-92
2021/04/28 20:15:58;;;;;;;19.47;14.47;;;18.90;46.30;;;;;;6251730;22;20201;-92
2021/04/28 20:18:23;;;;;;;21.33;15.10;;;18.70;46.70;;;;;;6252139;22;20572;-91
2021/04/28 20:20:49;;;;;;;21.77;15.20;;;18.70;46.70;;;;;;6250746;22;20138;-92
2021/04/28 20:23:17;;;;;;;20.20;15.07;;;18.60;46.80;;;;;;6250781;22;20150;-91
2021/04/28 20:25:43;;;;;;;19.90;14.47;;;18.60;47.40;;;;;;6247541;22;20147;-92
2021/04/28 20:28:22;;;;;;;23.27;14.57;;;18.50;47.50;;;;;;6250582;22;20268;-93
2021/04/28 20:30:49;;;;;;;20.67;14.20;;;18.50;47.60;;;;;;6225748;22;20190;-93
2021/04/28 20:33:19;;;;;;;18.67;13.70;;;18.50;47.20;;;;;;6277833;22;20151;-92
2021/04/28 20:35:46;;;;;;;24.07;14.90;;;18.70;47.10;;;;;;6249755;22;20146;-92
2021/04/28 20:38:13;;;;;;;22.87;13.90;;;18.80;47.10;;;;;;6249847;22;20158;-92
2021/04/28 20:40:38;;;;;;;21.60;13.67;;;18.80;46.70;;;;;;6250034;22;20208;-91
2021/04/28 20:43:05;;;;;;;18.80;14.13;;;18.90;46.90;;;;;;6249145;22;20147;-93
2021/04/28 20:45:31;;;;;;;26.33;14.53;;;18.80;47.10;;;;;;6223183;22;20154;-92
2021/04/28 20:48:03;;;;;;;25.77;14.00;;;18.60;47.30;;;;;;6222504;22;20500;-92
2021/04/28 20:50:32;;;;;;;18.37;14.00;;;18.60;47.80;;;;;;6275366;22;20134;-91
2021/04/28 20:52:58;;;;;;;20.23;14.30;;;18.50;47.70;;;;;;6222711;22;20182;-92
2021/04/28 20:55:25;;;;;;;19.57;14.60;;;18.60;47.40;;;;;;6248325;22;20161;-92
2021/04/28 20:57:51;;;;;;;20.83;14.40;;;18.80;47.30;;;;;;6248314;22;20646;-91
2021/04/28 21:00:17;;;;;;;25.63;14.50;;;18.80;47.30;;;;;;6250013;22;20170;-92
2021/04/28 21:02:43;;;;;;;21.37;13.97;;;19.00;47.30;;;;;;6252048;22;20230;-91
2021/04/28 21:05:14;;;;;;;22.53;14.87;;;19.10;47.30;;;;;;6251679;22;20475;-91
2021/04/28 21:07:40;;;;;;;25.93;15.70;;;18.90;47.40;;;;;;6251419;22;20178;-91
2021/04/28 21:10:10;;;;;;;26.90;15.60;;;19.00;47.00;;;;;;6251707;22;20192;-91
2021/04/28 21:12:41;;;;;;;20.47;14.37;;;19.00;47.10;;;;;;6252152;22;20553;-91
2021/04/28 21:15:08;;;;;;;22.13;14.80;;;19.00;47.40;;;;;;6251651;22;20575;-92
2021/04/28 21:17:34;;;;;;;21.40;14.60;;;18.60;48.00;;;;;;6251025;22;20228;-92
2021/04/28 21:20:03;;;;;;;24.80;14.93;;;18.50;48.60;;;;;;6252959;22;20145;-91
2021/04/28 21:22:30;;;;;;;22.07;15.70;;;18.60;48.30;;;;;;6253770;22;20164;-91
2021/04/28 21:24:56;;;;;;;23.83;15.80;;;18.50;48.20;;;;;;6253087;22;20149;-91
2021/04/28 21:27:23;;;;;;;22.33;16.03;;;18.30;48.60;;;;;;6254284;22;20565;-91
2021/04/28 21:29:48;;;;;;;21.87;14.40;;;18.00;49.00;;;;;;6254347;22;20160;-91
2021/04/28 21:32:17;;;;;;;22.67;14.70;;;17.90;49.40;;;;;;6253536;22;20561;-91
2021/04/28 21:34:43;;;;;;;20.40;14.23;;;17.80;49.40;;;;;;6253488;22;20151;-92
2021/04/28 21:37:10;;;;;;;20.43;14.43;;;17.70;49.50;;;;;;6280565;22;20182;-92
2021/04/28 21:39:36;;;;;;;20.90;13.77;;;17.60;49.70;;;;;;6254099;22;20590;-92
2021/04/28 21:42:04;;;;;;;23.60;13.13;;;17.80;49.30;;;;;;6253894;22;20159;-92
2021/04/28 21:44:30;;;;;;;25.00;13.73;;;17.70;49.70;;;;;;6253411;22;20477;-91
2021/04/28 21:46:56;;;;;;;21.30;13.60;;;17.80;49.90;;;;;;6252822;22;20592;-91
2021/04/28 21:49:27;;;;;;;18.33;13.77;;;17.90;50.10;;;;;;6279148;22;20588;-91
2021/04/28 21:51:53;;;;;;;21.67;13.03;;;17.80;49.50;;;;;;6252178;22;20233;-91
2021/04/28 21:54:20;;;;;;;24.33;14.17;;;17.90;49.40;;;;;;6252191;22;20176;-91
2021/04/28 21:56:46;;;;;;;20.23;14.17;;;17.80;49.40;;;;;;6251924;22;20393;-92
2021/04/28 21:59:12;;;;;;;21.63;14.20;;;17.80;49.60;;;;;;6252139;22;20629;-91